OCN2RF EDDF-LEPA
Flight info
| Callsign | OCN2RF |
|---|---|
| Flight time | N/A |
| Altitude | 37000 |
| Route | ANEKI2L/18 ANEKI Y163 HERBI/N0458F390 Y164 MOPAN DCT LUTIX DCT BENOT DCT NEMOS DCT GEVEA DCT INCUS DCT BALSI DCT RETNO DCT TUPOX DCT MTG DCT DIVKO DCT VATIR DCT PIVUS N852 VERSO L129 LUNIK |
| Aircraft | A333/H-SDE3GHIJ2J3J5M1RVWXY/LB2D1 |
Departure
| Time | 2026-05-08 07:36 |
|---|---|
| Airport | Frankfurt Main Airport (EDDF) |
Arrival
| Time | N/A |
|---|---|
| Airport | Palma de Mallorca Airport (LEPA) |
| Time | Latitude | Longitude | Altitude | Speed | Heading |
|---|---|---|---|---|---|
| 2026-05-08 07:11 | 50.04816 | 8.57175 | 360 ft | 0 kts | 115° |
| 2026-05-08 07:19 | 50.04817 | 8.57171 | 366 ft | 3 kts | 115° |
| 2026-05-08 07:20 | 50.04828 | 8.57134 | 364 ft | 4 kts | 117° |
| 2026-05-08 07:20 | 50.04838 | 8.57105 | 361 ft | 4 kts | 121° |
| 2026-05-08 07:20 | 50.04855 | 8.57077 | 367 ft | 3 kts | 156° |
| 2026-05-08 07:20 | 50.04848 | 8.57077 | 366 ft | 4 kts | 180° |
| 2026-05-08 07:21 | 50.04825 | 8.57059 | 364 ft | 4 kts | 212° |
| 2026-05-08 07:21 | 50.04802 | 8.57040 | 360 ft | 2 kts | 205° |
| 2026-05-08 07:21 | 50.04801 | 8.57039 | 364 ft | 1 kts | 205° |
| 2026-05-08 07:24 | 50.04797 | 8.57036 | 360 ft | 2 kts | 205° |
| 2026-05-08 07:24 | 50.04777 | 8.57022 | 368 ft | 4 kts | 205° |
| 2026-05-08 07:24 | 50.04742 | 8.56997 | 368 ft | 7 kts | 205° |
| 2026-05-08 07:24 | 50.04692 | 8.56961 | 368 ft | 9 kts | 205° |
| 2026-05-08 07:25 | 50.04628 | 8.56919 | 364 ft | 11 kts | 195° |
| 2026-05-08 07:25 | 50.04555 | 8.56891 | 368 ft | 10 kts | 194° |
| 2026-05-08 07:25 | 50.04400 | 8.56844 | 365 ft | 13 kts | 188° |
| 2026-05-08 07:26 | 50.04309 | 8.56815 | 368 ft | 14 kts | 191° |
| 2026-05-08 07:26 | 50.04243 | 8.56766 | 369 ft | 11 kts | 237° |
| 2026-05-08 07:26 | 50.04211 | 8.56628 | 366 ft | 16 kts | 251° |
| 2026-05-08 07:26 | 50.04171 | 8.56458 | 364 ft | 17 kts | 249° |
| 2026-05-08 07:27 | 50.04133 | 8.56303 | 360 ft | 7 kts | 250° |
| 2026-05-08 07:27 | 50.04115 | 8.56228 | 360 ft | 8 kts | 249° |
| 2026-05-08 07:27 | 50.04093 | 8.56138 | 363 ft | 9 kts | 249° |
| 2026-05-08 07:27 | 50.04068 | 8.56034 | 360 ft | 12 kts | 249° |
| 2026-05-08 07:28 | 50.04036 | 8.55901 | 362 ft | 15 kts | 249° |
| 2026-05-08 07:28 | 50.03998 | 8.55741 | 357 ft | 17 kts | 250° |
| 2026-05-08 07:28 | 50.03954 | 8.55556 | 357 ft | 19 kts | 250° |
| 2026-05-08 07:28 | 50.03907 | 8.55359 | 361 ft | 21 kts | 249° |
| 2026-05-08 07:29 | 50.03855 | 8.55142 | 360 ft | 22 kts | 249° |
| 2026-05-08 07:29 | 50.03817 | 8.54984 | 359 ft | 12 kts | 249° |
| 2026-05-08 07:29 | 50.03784 | 8.54844 | 359 ft | 15 kts | 250° |
| 2026-05-08 07:29 | 50.03744 | 8.54677 | 357 ft | 18 kts | 249° |
| 2026-05-08 07:30 | 50.03696 | 8.54479 | 351 ft | 21 kts | 250° |
| 2026-05-08 07:30 | 50.03643 | 8.54256 | 353 ft | 19 kts | 250° |
| 2026-05-08 07:30 | 50.03595 | 8.54054 | 350 ft | 21 kts | 249° |
| 2026-05-08 07:30 | 50.03542 | 8.53832 | 351 ft | 23 kts | 250° |
| 2026-05-08 07:31 | 50.03499 | 8.53654 | 351 ft | 17 kts | 250° |
| 2026-05-08 07:31 | 50.03455 | 8.53471 | 346 ft | 19 kts | 250° |
| 2026-05-08 07:31 | 50.03406 | 8.53263 | 336 ft | 22 kts | 250° |
| 2026-05-08 07:31 | 50.03359 | 8.53069 | 335 ft | 17 kts | 250° |
| 2026-05-08 07:32 | 50.03314 | 8.52880 | 334 ft | 20 kts | 250° |
| 2026-05-08 07:32 | 50.03290 | 8.52779 | 333 ft | 10 kts | 249° |
| 2026-05-08 07:32 | 50.03285 | 8.52758 | 333 ft | 0 kts | 249° |
| 2026-05-08 07:32 | 50.03284 | 8.52757 | 333 ft | 1 kts | 249° |
| 2026-05-08 07:33 | 50.03283 | 8.52751 | 334 ft | 2 kts | 249° |
| 2026-05-08 07:33 | 50.03282 | 8.52748 | 334 ft | 1 kts | 249° |
| 2026-05-08 07:33 | 50.03275 | 8.52719 | 333 ft | 4 kts | 249° |
| 2026-05-08 07:34 | 50.03263 | 8.52671 | 338 ft | 4 kts | 248° |
| 2026-05-08 07:34 | 50.03247 | 8.52620 | 336 ft | 6 kts | 236° |
| 2026-05-08 07:34 | 50.03206 | 8.52592 | 335 ft | 7 kts | 180° |
| 2026-05-08 07:34 | 50.03150 | 8.52596 | 337 ft | 9 kts | 178° |
| 2026-05-08 07:35 | 50.03079 | 8.52597 | 339 ft | 11 kts | 180° |
| 2026-05-08 07:35 | 50.03002 | 8.52598 | 337 ft | 0 kts | 179° |
| 2026-05-08 07:35 | 50.02994 | 8.52598 | 338 ft | 7 kts | 179° |
| 2026-05-08 07:35 | 50.02855 | 8.52600 | 337 ft | 37 kts | 179° |
| 2026-05-08 07:36 | 50.02360 | 8.52605 | 339 ft | 105 kts | 180° |
| 2026-05-08 07:36 | 50.01420 | 8.52615 | 337 ft | 164 kts | 179° |
| 2026-05-08 07:36 | 50.00200 | 8.52613 | 951 ft | 173 kts | 178° |
| 2026-05-08 07:36 | 49.99030 | 8.52610 | 1973 ft | 170 kts | 178° |
| 2026-05-08 07:37 | 49.97761 | 8.52705 | 2516 ft | 194 kts | 174° |
| 2026-05-08 07:37 | 49.96334 | 8.52855 | 3034 ft | 216 kts | 175° |
| 2026-05-08 07:37 | 49.94776 | 8.52992 | 3613 ft | 231 kts | 176° |
| 2026-05-08 07:37 | 49.93156 | 8.53117 | 3969 ft | 234 kts | 176° |
| 2026-05-08 07:38 | 49.91545 | 8.53232 | 4815 ft | 235 kts | 177° |
| 2026-05-08 07:38 | 49.89914 | 8.53346 | 5877 ft | 235 kts | 178° |
| 2026-05-08 07:38 | 49.88276 | 8.53458 | 6870 ft | 237 kts | 178° |
| 2026-05-08 07:38 | 49.86624 | 8.53570 | 7857 ft | 238 kts | 178° |
| 2026-05-08 07:39 | 49.84959 | 8.53684 | 8816 ft | 241 kts | 179° |
| 2026-05-08 07:39 | 49.83273 | 8.53799 | 9747 ft | 245 kts | 179° |
| 2026-05-08 07:39 | 49.81555 | 8.53914 | 10557 ft | 250 kts | 179° |
| 2026-05-08 07:39 | 49.79805 | 8.54031 | 11355 ft | 254 kts | 179° |
| 2026-05-08 07:40 | 49.78027 | 8.54077 | 12153 ft | 257 kts | 184° |
| 2026-05-08 07:40 | 49.76210 | 8.53906 | 12623 ft | 275 kts | 186° |
| 2026-05-08 07:40 | 49.74224 | 8.53642 | 12967 ft | 298 kts | 186° |
| 2026-05-08 07:40 | 49.72088 | 8.53347 | 13311 ft | 319 kts | 186° |
| 2026-05-08 07:41 | 49.69808 | 8.53037 | 13677 ft | 338 kts | 186° |
| 2026-05-08 07:41 | 49.67422 | 8.52718 | 14241 ft | 349 kts | 186° |
| 2026-05-08 07:41 | 49.64984 | 8.52395 | 14916 ft | 354 kts | 186° |
| 2026-05-08 07:41 | 49.62510 | 8.52069 | 15637 ft | 359 kts | 187° |
| 2026-05-08 07:42 | 49.60010 | 8.51739 | 16392 ft | 363 kts | 187° |
| 2026-05-08 07:42 | 49.57516 | 8.51411 | 17137 ft | 366 kts | 187° |
| 2026-05-08 07:42 | 49.54967 | 8.51075 | 17881 ft | 370 kts | 187° |
| 2026-05-08 07:42 | 49.52389 | 8.50736 | 18593 ft | 374 kts | 187° |
| 2026-05-08 07:43 | 49.49786 | 8.50394 | 19206 ft | 377 kts | 187° |
| 2026-05-08 07:43 | 49.47155 | 8.50049 | 19828 ft | 381 kts | 187° |
| 2026-05-08 07:43 | 49.44503 | 8.49701 | 20435 ft | 384 kts | 187° |
| 2026-05-08 07:43 | 49.41829 | 8.49351 | 21042 ft | 388 kts | 187° |
| 2026-05-08 07:44 | 49.39129 | 8.48998 | 21658 ft | 391 kts | 187° |
| 2026-05-08 07:44 | 49.36408 | 8.48643 | 22258 ft | 394 kts | 187° |
| 2026-05-08 07:44 | 49.33703 | 8.48290 | 22842 ft | 397 kts | 187° |
| 2026-05-08 07:44 | 49.30938 | 8.47929 | 23409 ft | 400 kts | 187° |
| 2026-05-08 07:45 | 49.28153 | 8.47564 | 23920 ft | 404 kts | 187° |
| 2026-05-08 07:45 | 49.25343 | 8.47196 | 24390 ft | 406 kts | 187° |
| 2026-05-08 07:45 | 49.22516 | 8.46826 | 24886 ft | 409 kts | 187° |
| 2026-05-08 07:45 | 49.19677 | 8.46455 | 25363 ft | 409 kts | 187° |
| 2026-05-08 07:46 | 49.16842 | 8.46087 | 25888 ft | 411 kts | 187° |
| 2026-05-08 07:46 | 49.13979 | 8.45715 | 26345 ft | 413 kts | 187° |
| 2026-05-08 07:46 | 49.11144 | 8.45347 | 26774 ft | 416 kts | 187° |
| 2026-05-08 07:46 | 49.08254 | 8.44965 | 27239 ft | 418 kts | 188° |
| 2026-05-08 07:47 | 49.05381 | 8.44282 | 27691 ft | 419 kts | 193° |
| 2026-05-08 07:47 | 49.02522 | 8.43402 | 28140 ft | 421 kts | 194° |
| 2026-05-08 07:47 | 48.99654 | 8.42446 | 28584 ft | 423 kts | 195° |
| 2026-05-08 07:47 | 48.96782 | 8.41447 | 29035 ft | 425 kts | 195° |
| 2026-05-08 07:48 | 48.93897 | 8.40429 | 29489 ft | 427 kts | 195° |
| 2026-05-08 07:48 | 48.90996 | 8.39403 | 29922 ft | 430 kts | 195° |
| 2026-05-08 07:48 | 48.88073 | 8.38375 | 30317 ft | 432 kts | 195° |
| 2026-05-08 07:48 | 48.85132 | 8.37346 | 30693 ft | 435 kts | 195° |
| 2026-05-08 07:49 | 48.82175 | 8.36317 | 31059 ft | 437 kts | 195° |
| 2026-05-08 07:49 | 48.79147 | 8.35257 | 28688 ft | 487 kts | 195° |
| 2026-05-08 07:49 | 48.75966 | 8.34133 | 30273 ft | 455 kts | 195° |
| 2026-05-08 07:49 | 48.72957 | 8.33079 | 31574 ft | 436 kts | 195° |
| 2026-05-08 07:50 | 48.70027 | 8.32018 | 32180 ft | 433 kts | 195° |
| 2026-05-08 07:50 | 48.67078 | 8.30928 | 32399 ft | 439 kts | 195° |
| 2026-05-08 07:50 | 48.64107 | 8.29823 | 32723 ft | 441 kts | 195° |
| 2026-05-08 07:50 | 48.61125 | 8.28718 | 33172 ft | 441 kts | 195° |
| 2026-05-08 07:51 | 48.58147 | 8.27624 | 33663 ft | 439 kts | 195° |
| 2026-05-08 07:51 | 48.55225 | 8.26558 | 34137 ft | 438 kts | 195° |
| 2026-05-08 07:51 | 48.52266 | 8.25483 | 34517 ft | 437 kts | 195° |
| 2026-05-08 07:51 | 48.49311 | 8.24412 | 34848 ft | 437 kts | 195° |
| 2026-05-08 07:52 | 48.46351 | 8.23336 | 35185 ft | 437 kts | 195° |
| 2026-05-08 07:52 | 48.43393 | 8.22257 | 35524 ft | 437 kts | 195° |
| 2026-05-08 07:52 | 48.40435 | 8.21176 | 35848 ft | 438 kts | 195° |
| 2026-05-08 07:52 | 48.37479 | 8.20096 | 36171 ft | 438 kts | 195° |
| 2026-05-08 07:53 | 48.34515 | 8.19014 | 36459 ft | 439 kts | 195° |
| 2026-05-08 07:53 | 48.31547 | 8.17933 | 36721 ft | 440 kts | 195° |
| 2026-05-08 07:53 | 48.28608 | 8.16864 | 37008 ft | 441 kts | 195° |
| 2026-05-08 07:54 | 48.22840 | 8.13987 | 37084 ft | 434 kts | 205° |
| 2026-05-08 07:54 | 48.17394 | 8.10148 | 37082 ft | 432 kts | 208° |
| 2026-05-08 07:55 | 48.12012 | 8.06140 | 37075 ft | 432 kts | 208° |
| 2026-05-08 07:55 | 48.06627 | 8.02123 | 37071 ft | 432 kts | 208° |
| 2026-05-08 07:56 | 48.01271 | 7.98164 | 37070 ft | 432 kts | 208° |
| 2026-05-08 07:56 | 47.95871 | 7.94199 | 37068 ft | 432 kts | 208° |
| 2026-05-08 07:57 | 47.90471 | 7.90248 | 37063 ft | 432 kts | 208° |
| 2026-05-08 07:57 | 47.85064 | 7.86301 | 37072 ft | 433 kts | 208° |
| 2026-05-08 07:58 | 47.79656 | 7.82361 | 37061 ft | 433 kts | 208° |
| 2026-05-08 07:58 | 47.74281 | 7.78452 | 37073 ft | 433 kts | 208° |
| 2026-05-08 07:59 | 47.68873 | 7.74532 | 37068 ft | 432 kts | 208° |
| 2026-05-08 07:59 | 47.63466 | 7.70622 | 37073 ft | 432 kts | 208° |
| 2026-05-08 08:00 | 47.58062 | 7.66722 | 37073 ft | 432 kts | 208° |
| 2026-05-08 08:00 | 47.52653 | 7.62826 | 37069 ft | 432 kts | 208° |
| 2026-05-08 08:01 | 47.47295 | 7.58975 | 37076 ft | 431 kts | 208° |
| 2026-05-08 08:01 | 47.41900 | 7.55108 | 37060 ft | 431 kts | 208° |
| 2026-05-08 08:02 | 47.36505 | 7.51249 | 37066 ft | 431 kts | 208° |
| 2026-05-08 08:02 | 47.31144 | 7.47423 | 37072 ft | 431 kts | 208° |
| 2026-05-08 08:03 | 47.25745 | 7.43578 | 37079 ft | 431 kts | 208° |
| 2026-05-08 08:03 | 47.20352 | 7.39719 | 37074 ft | 431 kts | 210° |
| 2026-05-08 08:04 | 47.15503 | 7.34655 | 37070 ft | 427 kts | 225° |
| 2026-05-08 08:04 | 47.11581 | 7.28122 | 37073 ft | 426 kts | 231° |
| 2026-05-08 08:05 | 47.07921 | 7.21350 | 37061 ft | 426 kts | 232° |
| 2026-05-08 08:05 | 47.04260 | 7.14505 | 37056 ft | 426 kts | 232° |
| 2026-05-08 08:06 | 47.00573 | 7.07697 | 37073 ft | 427 kts | 232° |
| 2026-05-08 08:06 | 46.97493 | 7.02060 | 37072 ft | 426 kts | 232° |
| 2026-05-08 08:07 | 46.93178 | 6.94201 | 37082 ft | 426 kts | 232° |
| 2026-05-08 08:07 | 46.89000 | 6.88041 | 37077 ft | 428 kts | 222° |
| 2026-05-08 08:08 | 46.85209 | 6.83369 | 37074 ft | 429 kts | 221° |
| 2026-05-08 08:08 | 46.80578 | 6.77879 | 37073 ft | 429 kts | 220° |
| 2026-05-08 08:09 | 46.75179 | 6.71518 | 37069 ft | 428 kts | 220° |
| 2026-05-08 08:09 | 46.71305 | 6.66941 | 37065 ft | 428 kts | 220° |
| 2026-05-08 08:10 | 46.66720 | 6.61520 | 37061 ft | 427 kts | 220° |
| 2026-05-08 08:10 | 46.62103 | 6.56069 | 37063 ft | 427 kts | 220° |
| 2026-05-08 08:11 | 46.57487 | 6.50631 | 37061 ft | 427 kts | 220° |
| 2026-05-08 08:11 | 46.52864 | 6.45200 | 37063 ft | 428 kts | 220° |
| 2026-05-08 08:12 | 46.48224 | 6.39760 | 37053 ft | 430 kts | 220° |
| 2026-05-08 08:12 | 46.43599 | 6.34350 | 37055 ft | 430 kts | 220° |
| 2026-05-08 08:13 | 46.38939 | 6.28913 | 37058 ft | 430 kts | 220° |
| 2026-05-08 08:13 | 46.34286 | 6.23496 | 37073 ft | 429 kts | 220° |
| 2026-05-08 08:14 | 46.29632 | 6.18094 | 37073 ft | 429 kts | 219° |
| 2026-05-08 08:14 | 46.24527 | 6.13736 | 37079 ft | 433 kts | 204° |
| 2026-05-08 08:15 | 46.18674 | 6.11570 | 37071 ft | 437 kts | 193° |
| 2026-05-08 08:15 | 46.12662 | 6.10201 | 37074 ft | 438 kts | 191° |
| 2026-05-08 08:16 | 46.06631 | 6.08954 | 37046 ft | 438 kts | 191° |
| 2026-05-08 08:16 | 46.00645 | 6.07680 | 37032 ft | 437 kts | 192° |
| 2026-05-08 08:17 | 45.94633 | 6.06365 | 37045 ft | 437 kts | 192° |
| 2026-05-08 08:17 | 45.88631 | 6.05040 | 37047 ft | 436 kts | 192° |
| 2026-05-08 08:18 | 45.82629 | 6.03715 | 37050 ft | 436 kts | 192° |
| 2026-05-08 08:18 | 45.76670 | 6.02398 | 37041 ft | 436 kts | 192° |
| 2026-05-08 08:19 | 45.70672 | 6.01075 | 37043 ft | 436 kts | 192° |
| 2026-05-08 08:19 | 45.64679 | 5.99756 | 37049 ft | 436 kts | 192° |
| 2026-05-08 08:20 | 45.58688 | 5.98441 | 37049 ft | 436 kts | 192° |
| 2026-05-08 08:20 | 45.52694 | 5.97129 | 37048 ft | 436 kts | 192° |
| 2026-05-08 08:21 | 45.46745 | 5.95777 | 37043 ft | 435 kts | 194° |
| 2026-05-08 08:21 | 45.40821 | 5.94008 | 37033 ft | 435 kts | 196° |
| 2026-05-08 08:22 | 45.34921 | 5.92094 | 37044 ft | 435 kts | 196° |
| 2026-05-08 08:22 | 45.29013 | 5.90203 | 37029 ft | 435 kts | 196° |
| 2026-05-08 08:23 | 45.23145 | 5.88362 | 37013 ft | 435 kts | 195° |
| 2026-05-08 08:23 | 45.17233 | 5.86531 | 37036 ft | 435 kts | 195° |
| 2026-05-08 08:24 | 45.11314 | 5.84702 | 37035 ft | 435 kts | 195° |
| 2026-05-08 08:24 | 45.05396 | 5.82878 | 37036 ft | 435 kts | 195° |
| 2026-05-08 08:25 | 44.99474 | 5.81048 | 37028 ft | 436 kts | 195° |
| 2026-05-08 08:25 | 44.93590 | 5.79236 | 37032 ft | 436 kts | 195° |
| 2026-05-08 08:26 | 44.87660 | 5.77416 | 37026 ft | 436 kts | 195° |
| 2026-05-08 08:26 | 44.81733 | 5.75601 | 37024 ft | 437 kts | 196° |
| 2026-05-08 08:27 | 44.75786 | 5.73783 | 37027 ft | 437 kts | 196° |
| 2026-05-08 08:27 | 44.69879 | 5.71980 | 37036 ft | 438 kts | 196° |
| 2026-05-08 08:28 | 44.63928 | 5.70167 | 37028 ft | 438 kts | 196° |
| 2026-05-08 08:28 | 44.57960 | 5.68352 | 37026 ft | 439 kts | 196° |
| 2026-05-08 08:29 | 44.51983 | 5.66541 | 37025 ft | 439 kts | 196° |
| 2026-05-08 08:29 | 44.46050 | 5.64746 | 37019 ft | 439 kts | 196° |
| 2026-05-08 08:30 | 44.40064 | 5.62932 | 37025 ft | 440 kts | 198° |
| 2026-05-08 08:30 | 44.31462 | 5.58784 | 37021 ft | 435 kts | 205° |
| 2026-05-08 08:31 | 44.25829 | 5.55692 | 37027 ft | 435 kts | 206° |
| 2026-05-08 08:31 | 44.20230 | 5.52599 | 37025 ft | 436 kts | 206° |
| 2026-05-08 08:32 | 44.14569 | 5.49496 | 37030 ft | 437 kts | 205° |
| 2026-05-08 08:32 | 44.08913 | 5.46418 | 37012 ft | 436 kts | 206° |
| 2026-05-08 08:33 | 44.03254 | 5.43348 | 37027 ft | 437 kts | 206° |
| 2026-05-08 08:33 | 43.97630 | 5.40301 | 37029 ft | 437 kts | 206° |
| 2026-05-08 08:34 | 43.91965 | 5.37237 | 37029 ft | 437 kts | 206° |
| 2026-05-08 08:34 | 43.86298 | 5.34174 | 37024 ft | 437 kts | 206° |
| 2026-05-08 08:35 | 43.80632 | 5.31118 | 37021 ft | 437 kts | 206° |
| 2026-05-08 08:35 | 43.74955 | 5.28064 | 37022 ft | 438 kts | 206° |
| 2026-05-08 08:36 | 43.69319 | 5.25039 | 37007 ft | 437 kts | 207° |
| 2026-05-08 08:36 | 43.63644 | 5.21999 | 37024 ft | 437 kts | 207° |
| 2026-05-08 08:37 | 43.57968 | 5.18963 | 37023 ft | 437 kts | 207° |
| 2026-05-08 08:37 | 43.52297 | 5.15935 | 37022 ft | 437 kts | 207° |
| 2026-05-08 08:38 | 43.46659 | 5.12933 | 37026 ft | 437 kts | 207° |
| 2026-05-08 08:38 | 43.40997 | 5.09912 | 37026 ft | 435 kts | 209° |
| 2026-05-08 08:39 | 43.35770 | 5.05943 | 37026 ft | 427 kts | 218° |
| 2026-05-08 08:39 | 43.30841 | 5.01413 | 37012 ft | 426 kts | 221° |
| 2026-05-08 08:40 | 43.25986 | 4.96804 | 37026 ft | 423 kts | 221° |
| 2026-05-08 08:40 | 43.21184 | 4.92255 | 37032 ft | 421 kts | 221° |
| 2026-05-08 08:41 | 43.16364 | 4.87724 | 37034 ft | 420 kts | 221° |
| 2026-05-08 08:41 | 43.11538 | 4.83208 | 37022 ft | 420 kts | 221° |
| 2026-05-08 08:42 | 43.06739 | 4.78740 | 37024 ft | 416 kts | 220° |
| 2026-05-08 08:42 | 43.01754 | 4.74736 | 37036 ft | 419 kts | 217° |
| 2026-05-08 08:43 | 42.96661 | 4.70850 | 37037 ft | 420 kts | 216° |
| 2026-05-08 08:43 | 42.91549 | 4.66998 | 37021 ft | 419 kts | 217° |
| 2026-05-08 08:44 | 42.86455 | 4.63163 | 37034 ft | 417 kts | 217° |
| 2026-05-08 08:44 | 42.81377 | 4.59336 | 37034 ft | 417 kts | 217° |
| 2026-05-08 08:45 | 42.76337 | 4.55539 | 37032 ft | 416 kts | 216° |
| 2026-05-08 08:45 | 42.71289 | 4.51747 | 37034 ft | 414 kts | 216° |
| 2026-05-08 08:46 | 42.66252 | 4.47968 | 37034 ft | 413 kts | 216° |
| 2026-05-08 08:46 | 42.61215 | 4.44196 | 37034 ft | 413 kts | 216° |
| 2026-05-08 08:47 | 42.56176 | 4.40429 | 37034 ft | 413 kts | 216° |
| 2026-05-08 08:47 | 42.51171 | 4.36696 | 37044 ft | 413 kts | 216° |
| 2026-05-08 08:48 | 42.46152 | 4.32962 | 37023 ft | 411 kts | 216° |
| 2026-05-08 08:48 | 42.41150 | 4.29244 | 37038 ft | 410 kts | 216° |
| 2026-05-08 08:49 | 42.36146 | 4.25530 | 37039 ft | 410 kts | 216° |
| 2026-05-08 08:49 | 42.31176 | 4.21849 | 37024 ft | 410 kts | 216° |
| 2026-05-08 08:50 | 42.26184 | 4.18161 | 37025 ft | 408 kts | 215° |
| 2026-05-08 08:50 | 42.21213 | 4.14494 | 37031 ft | 407 kts | 215° |
| 2026-05-08 08:51 | 42.16247 | 4.10836 | 37028 ft | 406 kts | 215° |
| 2026-05-08 08:51 | 42.11317 | 4.07212 | 37015 ft | 406 kts | 215° |
| 2026-05-08 08:52 | 42.06357 | 4.03577 | 37026 ft | 405 kts | 215° |
| 2026-05-08 08:52 | 42.01401 | 3.99950 | 37026 ft | 405 kts | 215° |
| 2026-05-08 08:53 | 41.96446 | 3.96327 | 37021 ft | 405 kts | 215° |
| 2026-05-08 08:53 | 41.91257 | 3.93326 | 37000 ft | 417 kts | 202° |
| 2026-05-08 08:54 | 41.85554 | 3.91682 | 37028 ft | 420 kts | 198° |
| 2026-05-08 08:54 | 41.79779 | 3.90364 | 37025 ft | 421 kts | 197° |
| 2026-05-08 08:55 | 41.73997 | 3.89090 | 37028 ft | 421 kts | 197° |
| 2026-05-08 08:55 | 41.68259 | 3.87797 | 37030 ft | 420 kts | 197° |
| 2026-05-08 08:56 | 41.62505 | 3.86481 | 37028 ft | 419 kts | 197° |
| 2026-05-08 08:56 | 41.56756 | 3.85160 | 37026 ft | 419 kts | 198° |
| 2026-05-08 08:57 | 41.51013 | 3.83839 | 37030 ft | 419 kts | 197° |
| 2026-05-08 08:57 | 41.45278 | 3.82525 | 37027 ft | 417 kts | 197° |
| 2026-05-08 08:58 | 41.39670 | 3.81244 | 37030 ft | 416 kts | 197° |
| 2026-05-08 08:58 | 41.33970 | 3.79941 | 37033 ft | 416 kts | 197° |
| 2026-05-08 08:59 | 41.28275 | 3.78643 | 37014 ft | 415 kts | 197° |
| 2026-05-08 08:59 | 41.22583 | 3.77348 | 37033 ft | 415 kts | 197° |
| 2026-05-08 09:00 | 41.16942 | 3.76056 | 37033 ft | 413 kts | 198° |
| 2026-05-08 09:00 | 41.11567 | 3.73722 | 37032 ft | 405 kts | 207° |
| 2026-05-08 09:01 | 41.06310 | 3.71048 | 37010 ft | 405 kts | 207° |
| 2026-05-08 09:01 | 41.01059 | 3.68352 | 37031 ft | 405 kts | 207° |
| 2026-05-08 09:02 | 40.95846 | 3.65674 | 37034 ft | 405 kts | 207° |
| 2026-05-08 09:02 | 40.90595 | 3.62980 | 37031 ft | 405 kts | 207° |
| 2026-05-08 09:03 | 40.85347 | 3.60291 | 37014 ft | 405 kts | 207° |
| 2026-05-08 09:03 | 40.80135 | 3.57626 | 37027 ft | 404 kts | 207° |
| 2026-05-08 09:04 | 40.74939 | 3.54973 | 37030 ft | 404 kts | 207° |
| 2026-05-08 09:04 | 40.69733 | 3.52319 | 37029 ft | 404 kts | 207° |
| 2026-05-08 09:05 | 40.64514 | 3.49663 | 37028 ft | 404 kts | 207° |
| 2026-05-08 09:05 | 40.59267 | 3.46997 | 37026 ft | 404 kts | 207° |
| 2026-05-08 09:06 | 40.54020 | 3.44336 | 37026 ft | 404 kts | 207° |
| 2026-05-08 09:06 | 40.48792 | 3.41689 | 36517 ft | 403 kts | 207° |
| 2026-05-08 09:07 | 40.46209 | 3.40387 | 35908 ft | 404 kts | 206° |
| 2026-05-08 09:07 | 40.43465 | 3.39445 | 35087 ft | 413 kts | 193° |
| 2026-05-08 09:07 | 40.40610 | 3.39337 | 34110 ft | 421 kts | 186° |
| 2026-05-08 09:07 | 40.37673 | 3.39502 | 32972 ft | 423 kts | 184° |
| 2026-05-08 09:08 | 40.34746 | 3.39699 | 31291 ft | 434 kts | 184° |
| 2026-05-08 09:08 | 40.31712 | 3.39890 | 29320 ft | 452 kts | 183° |
| 2026-05-08 09:08 | 40.28544 | 3.40085 | 27785 ft | 455 kts | 182° |
| 2026-05-08 09:08 | 40.25422 | 3.40280 | 26943 ft | 443 kts | 182° |
| 2026-05-08 09:09 | 40.22387 | 3.40468 | 26107 ft | 431 kts | 182° |
| 2026-05-08 09:09 | 40.19463 | 3.40641 | 25170 ft | 423 kts | 182° |
| 2026-05-08 09:09 | 40.16540 | 3.40809 | 24253 ft | 417 kts | 182° |
| 2026-05-08 09:09 | 40.13700 | 3.40970 | 23275 ft | 412 kts | 181° |
| 2026-05-08 09:10 | 40.10850 | 3.41131 | 22175 ft | 407 kts | 182° |
| 2026-05-08 09:10 | 40.08033 | 3.41290 | 21137 ft | 402 kts | 182° |
| 2026-05-08 09:10 | 40.05274 | 3.41446 | 20146 ft | 397 kts | 182° |
| 2026-05-08 09:10 | 40.02532 | 3.41601 | 19172 ft | 392 kts | 182° |
| 2026-05-08 09:11 | 39.99827 | 3.41754 | 18213 ft | 387 kts | 182° |
| 2026-05-08 09:11 | 39.97181 | 3.41902 | 17136 ft | 382 kts | 182° |
| 2026-05-08 09:11 | 39.94549 | 3.42049 | 16158 ft | 376 kts | 181° |
| 2026-05-08 09:11 | 39.91951 | 3.42194 | 15160 ft | 372 kts | 181° |
| 2026-05-08 09:12 | 39.89379 | 3.42337 | 14163 ft | 368 kts | 180° |
| 2026-05-08 09:12 | 39.86831 | 3.42479 | 13117 ft | 364 kts | 180° |
| 2026-05-08 09:12 | 39.84323 | 3.42620 | 12165 ft | 357 kts | 179° |
| 2026-05-08 09:12 | 39.81905 | 3.42756 | 11839 ft | 352 kts | 179° |
| 2026-05-08 09:13 | 39.79520 | 3.42889 | 11605 ft | 347 kts | 179° |
| 2026-05-08 09:13 | 39.77131 | 3.43024 | 10747 ft | 341 kts | 179° |
| 2026-05-08 09:13 | 39.74780 | 3.43154 | 9830 ft | 335 kts | 178° |
| 2026-05-08 09:13 | 39.72483 | 3.43234 | 8864 ft | 334 kts | 182° |
| 2026-05-08 09:14 | 39.70263 | 3.42487 | 8449 ft | 328 kts | 207° |
| 2026-05-08 09:14 | 39.68593 | 3.40573 | 8193 ft | 319 kts | 233° |
| 2026-05-08 09:14 | 39.67567 | 3.38188 | 8009 ft | 307 kts | 242° |
| 2026-05-08 09:14 | 39.66692 | 3.35778 | 7823 ft | 296 kts | 244° |
| 2026-05-08 09:15 | 39.65831 | 3.33404 | 7616 ft | 287 kts | 243° |
| 2026-05-08 09:15 | 39.64987 | 3.31077 | 7318 ft | 284 kts | 243° |
| 2026-05-08 09:15 | 39.64156 | 3.28783 | 6935 ft | 284 kts | 242° |
| 2026-05-08 09:15 | 39.63314 | 3.26454 | 6556 ft | 285 kts | 242° |
| 2026-05-08 09:16 | 39.62474 | 3.24129 | 6154 ft | 284 kts | 243° |
| 2026-05-08 09:16 | 39.61641 | 3.21806 | 5763 ft | 283 kts | 243° |
| 2026-05-08 09:16 | 39.60808 | 3.19497 | 5349 ft | 282 kts | 243° |
| 2026-05-08 09:16 | 39.60157 | 3.17098 | 5014 ft | 282 kts | 253° |
| 2026-05-08 09:17 | 39.59730 | 3.14651 | 4690 ft | 282 kts | 257° |
| 2026-05-08 09:17 | 39.59358 | 3.12159 | 4388 ft | 280 kts | 257° |
| 2026-05-08 09:17 | 39.58972 | 3.09689 | 4058 ft | 280 kts | 256° |
| 2026-05-08 09:17 | 39.58539 | 3.07229 | 3634 ft | 280 kts | 255° |
| 2026-05-08 09:18 | 39.58061 | 3.04794 | 3244 ft | 278 kts | 253° |
| 2026-05-08 09:18 | 39.57555 | 3.02385 | 3051 ft | 277 kts | 252° |
| 2026-05-08 09:18 | 39.57030 | 2.99985 | 3009 ft | 276 kts | 253° |
| 2026-05-08 09:18 | 39.56498 | 2.97595 | 3013 ft | 276 kts | 252° |
| 2026-05-08 09:19 | 39.55961 | 2.95201 | 3019 ft | 278 kts | 252° |